Mebane, NC (27302)

10:01 EST 13. Únor 2016 (GMT -0500)
APRSWXNET | | Change Station
CLOSE
Current Station
Osobní povětrnostní stanice
Location: Mebane, NC
Nadmořská výška: 659 ft
Poblíž povětrnostní stanice

Výška 659 ft 36.11 °N, 79.27 °W | Updated 26 minutes ago

Jasno
Jasno
25 °F
Pocit jako 17 °F
S
7
Vítr proměnlivý Vítr od SSZ
Gusts 9.0 mil/h

Dnes
Vysoké -- | Nízké -- °F
--% Možnost srážek
Včera
Vysoké -- | Nízké -- °F
Precip. -- inčů
Tlak 30.31 inčů
Viditelnost 10.0 mílí
Zataženo Skoro zataženo 5500 ft
Ochlazování větrem 17 °F
Rosný bod 6 °F
Vlhkost 43%
Dešťové srážky inčů
Sněhová pokrývka Není k dispozici
7:07 AM 5:55 PM
Dorůstající srpek, 31% visible
METAR KBUY 131454Z AUTO 30010G18KT 10SM BKN055 M02/M16 A3029 RMK AO2 SLP263 T10221156 51033
Tlak 30.31 inčů
Viditelnost 10.0 mílí
Zataženo Skoro zataženo 5500 ft
Ochlazování větrem 17 °F
Rosný bod 6 °F
Vlhkost 43%
Dešťové srážky inčů
Sněhová pokrývka Není k dispozici
7:07 AM 5:55 PM
Dorůstající srpek, 31% visible
METAR KBUY 131454Z AUTO 30010G18KT 10SM BKN055 M02/M16 A3029 RMK AO2 SLP263 T10221156 51033

10-Day Weather Forecast

Almanac

Astronomie

Feb. 13, 2016 Východ Západ
Skutečný čas
Občanský soumrak
Námořní soumrak
Astronomický soumrak
Měsíc
Délka denního světla
Délka dne
Tomorrow will be .
, % of the Moon is Illuminated

Dnešní extrémy

State Highs State Lows

Community

WunderPhotos

Upload Photos

1,892,572 snímků staženo!

WunderBlog® & News

Nearby

Kvalita ovzduší

  Kvalita ovzduší Index kvality ovzduší Polutant
Not available.

Výška sněhu

Station Hloubka Nadmořská výška

Seizmická činnost

Město Distance Mag. Čas & datum
Minimální zobrazený rozsah je 2.5.

Pobřežní teplota vody

Lokalita Teplota

Stations

Poblíž povětrnostní stanice

Lokace stanice Tepl. Ochlazování větrem Rosný bod Vlhkost Vítr Precip. Výška Čas hlášení Typ
                   

Watches & Warnings

There are currently no watches in effect.